createdAt,value
2019-03-13T00:01:35.971Z,4.00
2019-03-13T00:04:05.658Z,4.10
2019-03-13T00:06:35.348Z,4.10
2019-03-13T00:09:07.787Z,4.10
2019-03-13T00:11:37.218Z,4.10
2019-03-13T00:14:06.828Z,4.10
2019-03-13T00:16:36.238Z,4.10
2019-03-13T00:19:05.622Z,4.10
2019-03-13T00:21:35.061Z,4.10
2019-03-13T00:24:04.466Z,4.10
2019-03-13T00:26:33.916Z,4.10
2019-03-13T00:29:03.344Z,4.10
2019-03-13T00:31:32.786Z,4.20
2019-03-13T00:34:02.287Z,4.20
2019-03-13T00:36:32.212Z,4.20
2019-03-13T00:39:01.538Z,4.20
2019-03-13T00:41:31.038Z,4.30
2019-03-13T00:44:00.392Z,4.30
2019-03-13T00:46:29.800Z,4.30
2019-03-13T00:49:18.200Z,4.40
2019-03-13T00:51:47.694Z,4.40
2019-03-13T00:54:17.084Z,4.40
2019-03-13T00:56:46.864Z,4.40
2019-03-13T00:59:16.288Z,4.40
2019-03-13T01:02:03.217Z,4.40
2019-03-13T01:04:46.323Z,4.40
2019-03-13T01:07:15.706Z,4.40
2019-03-13T01:09:46.134Z,4.40
2019-03-13T01:12:15.578Z,4.40
2019-03-13T01:14:45.049Z,4.40
2019-03-13T01:17:14.419Z,4.40
2019-03-13T01:19:43.770Z,4.40
2019-03-13T01:22:13.196Z,4.50
2019-03-13T01:24:42.614Z,4.50
2019-03-13T01:27:12.039Z,4.50
2019-03-13T01:29:41.380Z,4.50
2019-03-13T01:32:42.214Z,4.50
2019-03-13T01:35:33.250Z,4.50
2019-03-13T01:38:02.989Z,4.60
2019-03-13T01:40:32.409Z,4.50
2019-03-13T01:43:01.880Z,4.50
2019-03-13T01:45:31.305Z,4.50
2019-03-13T01:48:00.779Z,4.50
2019-03-13T01:50:30.207Z,4.50
2019-03-13T01:52:59.562Z,4.50
2019-03-13T01:55:28.985Z,4.60
2019-03-13T01:58:17.502Z,4.60
2019-03-13T02:00:46.958Z,4.60
2019-03-13T02:03:16.440Z,4.60
2019-03-13T02:06:04.959Z,4.60
2019-03-13T02:08:34.385Z,4.70
2019-03-13T02:11:03.820Z,4.70
2019-03-13T02:13:33.209Z,4.70
2019-03-13T02:16:02.665Z,4.70
2019-03-13T02:18:32.049Z,4.70
2019-03-13T02:21:01.421Z,4.70
2019-03-13T02:23:30.834Z,4.70
2019-03-13T02:26:00.650Z,4.80
2019-03-13T02:28:30.055Z,4.80
2019-03-13T02:30:59.455Z,4.80
2019-03-13T02:33:28.894Z,4.90
2019-03-13T02:35:58.369Z,4.90
2019-03-13T02:38:27.783Z,4.90
2019-03-13T02:40:57.226Z,4.90
2019-03-13T02:43:26.695Z,5.00
2019-03-13T02:45:56.033Z,5.00
2019-03-13T02:48:25.493Z,5.00
2019-03-13T02:50:54.967Z,5.00
2019-03-13T02:53:24.392Z,5.10
2019-03-13T02:55:53.797Z,5.10
2019-03-13T02:58:23.533Z,5.10
2019-03-13T03:01:12.029Z,5.10
2019-03-13T03:03:46.164Z,5.20
2019-03-13T03:06:15.584Z,5.20
2019-03-13T03:08:45.365Z,5.20
2019-03-13T03:11:14.796Z,5.20
2019-03-13T03:13:44.263Z,5.20
2019-03-13T03:16:14.027Z,5.20
2019-03-13T03:18:43.411Z,5.20
2019-03-13T03:21:12.795Z,5.20
2019-03-13T03:23:45.197Z,5.20
2019-03-13T03:26:13.649Z,5.20
2019-03-13T03:28:43.531Z,5.20
2019-03-13T03:31:12.933Z,5.20
2019-03-13T03:33:42.706Z,5.20
2019-03-13T03:36:12.493Z,5.20
2019-03-13T03:38:41.920Z,5.30
2019-03-13T03:41:11.326Z,5.30
2019-03-13T03:43:41.329Z,5.30
2019-03-13T03:46:10.737Z,5.30
2019-03-13T03:48:40.055Z,5.30
2019-03-13T03:51:09.463Z,5.30
2019-03-13T03:53:38.780Z,5.30
2019-03-13T03:56:08.157Z,5.30
2019-03-13T03:58:37.581Z,5.30
2019-03-13T04:01:07.064Z,5.30
2019-03-13T04:03:36.423Z,5.30
2019-03-13T04:06:06.201Z,5.30
2019-03-13T04:08:37.667Z,5.30
2019-03-13T04:11:06.715Z,5.30
2019-03-13T04:13:36.197Z,5.40
2019-03-13T04:16:05.566Z,5.30
2019-03-13T04:18:35.262Z,5.40
2019-03-13T04:21:04.902Z,5.40
2019-03-13T04:23:34.307Z,5.40
2019-03-13T04:26:04.120Z,5.40
2019-03-13T04:28:33.830Z,5.40
2019-03-13T04:31:03.380Z,5.40
2019-03-13T04:33:32.804Z,5.40
2019-03-13T04:36:02.222Z,5.40
2019-03-13T04:38:31.947Z,5.40
2019-03-13T04:41:01.259Z,5.40
2019-03-13T04:43:30.741Z,5.40
2019-03-13T04:46:00.051Z,5.40
2019-03-13T04:48:48.521Z,5.40
2019-03-13T04:51:17.947Z,5.40
2019-03-13T04:53:47.303Z,5.40
2019-03-13T04:56:16.744Z,5.40
2019-03-13T04:58:46.473Z,5.40
2019-03-13T05:01:15.865Z,5.40
2019-03-13T05:03:45.205Z,5.40
2019-03-13T05:06:21.364Z,5.40
2019-03-13T05:09:17.208Z,5.40
2019-03-13T05:11:46.699Z,5.40
2019-03-13T05:14:16.104Z,5.40
2019-03-13T05:16:45.625Z,5.40
2019-03-13T05:19:15.030Z,5.50
2019-03-13T05:21:44.855Z,5.50
2019-03-13T05:24:14.333Z,5.50
2019-03-13T05:26:44.061Z,5.50
2019-03-13T05:29:13.599Z,5.50
2019-03-13T05:31:43.241Z,5.50
2019-03-13T05:34:12.676Z,5.50
2019-03-13T05:36:42.203Z,5.50
2019-03-13T05:39:11.731Z,5.50
2019-03-13T05:41:41.209Z,5.50
2019-03-13T05:44:10.748Z,5.50
2019-03-13T05:46:40.145Z,5.50
2019-03-13T05:49:10.313Z,5.50
2019-03-13T05:51:39.873Z,5.60
2019-03-13T05:54:09.429Z,5.60
2019-03-13T05:56:40.801Z,5.60
2019-03-13T05:59:10.351Z,5.60
2019-03-13T06:01:39.757Z,5.60
2019-03-13T06:04:09.149Z,5.60
2019-03-13T06:06:38.565Z,5.60
2019-03-13T06:09:08.678Z,5.60
2019-03-13T06:11:38.130Z,5.60
2019-03-13T06:14:07.707Z,5.60
2019-03-13T06:16:37.122Z,5.70
2019-03-13T06:19:06.513Z,5.70
2019-03-13T06:21:35.963Z,5.70
2019-03-13T06:24:05.395Z,5.70
2019-03-13T06:26:34.812Z,5.70
2019-03-13T06:29:23.285Z,5.70
2019-03-13T06:31:53.681Z,5.80
2019-03-13T06:34:23.131Z,5.80
2019-03-13T06:36:52.554Z,5.80
2019-03-13T06:39:22.107Z,5.80
2019-03-13T06:41:51.518Z,5.80
2019-03-13T06:44:21.039Z,5.80
2019-03-13T06:46:50.430Z,5.80
2019-03-13T06:49:19.813Z,5.80
2019-03-13T06:51:49.519Z,5.80
2019-03-13T06:54:19.377Z,5.80
2019-03-13T06:56:48.784Z,5.90
2019-03-13T06:59:29.641Z,5.90
2019-03-13T07:02:23.811Z,5.90
2019-03-13T07:05:14.952Z,5.90
2019-03-13T07:07:59.701Z,5.90
2019-03-13T07:11:00.291Z,5.90
2019-03-13T07:13:46.493Z,5.90
2019-03-13T07:16:59.071Z,6.00
2019-03-13T07:19:47.419Z,6.00
2019-03-13T07:22:41.544Z,6.00
2019-03-13T07:25:26.721Z,6.00
2019-03-13T07:28:06.717Z,6.00
2019-03-13T07:30:57.785Z,6.10
2019-03-13T07:33:47.295Z,6.10
2019-03-13T07:36:35.678Z,6.10
2019-03-13T07:39:34.180Z,6.10
2019-03-13T07:42:19.453Z,6.10
2019-03-13T07:45:08.255Z,6.10
2019-03-13T07:47:59.657Z,6.10
2019-03-13T07:50:43.989Z,6.20
2019-03-13T07:53:29.095Z,6.20
2019-03-13T07:56:23.492Z,6.10
2019-03-13T07:59:06.499Z,6.10
2019-03-13T08:01:53.785Z,6.20
2019-03-13T08:04:49.352Z,6.20
2019-03-13T08:07:44.105Z,6.20
2019-03-13T08:10:25.817Z,6.20
2019-03-13T08:13:26.437Z,6.20
2019-03-13T08:16:08.053Z,6.20
2019-03-13T08:18:45.606Z,6.20
2019-03-13T08:21:40.309Z,6.30
2019-03-13T08:24:19.963Z,6.30
2019-03-13T08:26:57.875Z,6.30
2019-03-13T08:29:38.832Z,6.30
2019-03-13T08:32:20.405Z,6.30
2019-03-13T08:34:59.594Z,6.40
2019-03-13T08:37:44.849Z,6.40
2019-03-13T08:40:36.483Z,6.40
2019-03-13T08:43:30.860Z,6.40
2019-03-13T08:46:21.976Z,6.40
2019-03-13T08:49:13.052Z,6.40
2019-03-13T08:51:48.999Z,6.40
2019-03-13T08:54:49.525Z,6.40
2019-03-13T08:57:41.249Z,6.40
2019-03-13T09:13:39.680Z,6.50
2019-03-13T09:16:19.861Z,6.60
2019-03-13T09:19:08.160Z,6.60
2019-03-13T09:21:43.692Z,6.60
2019-03-13T09:24:37.996Z,6.60
2019-03-13T09:27:43.993Z,6.50
2019-03-13T09:30:31.487Z,6.50
2019-03-13T09:33:18.959Z,6.50
2019-03-13T09:36:16.579Z,6.50
2019-03-13T09:39:08.152Z,6.50
2019-03-13T09:42:03.018Z,6.50
2019-03-13T09:44:50.027Z,6.60
2019-03-13T09:47:25.634Z,6.60
2019-03-13T09:50:12.788Z,6.70
2019-03-13T09:53:06.937Z,6.60
2019-03-13T09:55:54.227Z,6.50
2019-03-13T09:59:01.003Z,6.40
2019-03-13T10:01:38.328Z,6.40
2019-03-13T10:04:19.111Z,6.40
2019-03-13T10:07:06.013Z,6.40
2019-03-13T10:10:00.498Z,6.40
2019-03-13T10:12:42.583Z,6.50
2019-03-13T10:15:34.535Z,6.50
2019-03-13T10:18:16.641Z,6.50
2019-03-13T10:21:07.780Z,6.60
2019-03-13T10:24:11.620Z,6.50
2019-03-13T10:26:58.681Z,6.40
2019-03-13T10:29:59.097Z,6.40
2019-03-13T10:32:53.571Z,6.50
2019-03-13T10:35:40.676Z,6.50
2019-03-13T10:38:38.000Z,6.60
2019-03-13T10:41:15.981Z,6.60
2019-03-13T10:44:00.480Z,6.60
2019-03-13T10:46:51.603Z,6.70
2019-03-13T10:49:48.893Z,6.80
2019-03-13T10:52:40.287Z,6.80
2019-03-13T10:55:26.248Z,6.80
2019-03-13T10:58:05.653Z,6.90
2019-03-13T11:01:00.407Z,6.90
2019-03-13T11:04:07.259Z,6.90
2019-03-13T11:06:58.190Z,6.90
2019-03-13T11:09:34.932Z,6.90
2019-03-13T11:12:22.086Z,7.00
2019-03-13T11:14:57.534Z,7.00
2019-03-13T11:17:45.922Z,7.00
2019-03-13T11:20:52.899Z,7.00
2019-03-13T11:23:50.244Z,7.00
2019-03-13T11:26:41.969Z,7.00
2019-03-13T11:29:36.268Z,6.90
2019-03-13T11:32:20.946Z,6.90
2019-03-13T11:35:24.564Z,6.90
2019-03-13T11:38:15.564Z,6.90
2019-03-13T11:41:02.645Z,6.90
2019-03-13T11:43:47.094Z,6.90
2019-03-13T11:46:25.795Z,6.90
2019-03-13T11:49:12.912Z,6.80
2019-03-13T11:52:00.152Z,6.70
2019-03-13T11:54:48.878Z,6.70
2019-03-13T11:57:27.350Z,6.60
2019-03-13T12:00:14.344Z,6.60
2019-03-13T12:03:05.628Z,6.60
2019-03-13T12:05:57.143Z,6.60
2019-03-13T12:08:51.532Z,6.60
2019-03-13T12:11:42.942Z,6.60
2019-03-13T12:14:27.850Z,6.60
2019-03-13T12:17:03.293Z,6.60
2019-03-13T12:20:00.800Z,6.60
2019-03-13T12:22:54.595Z,6.50
2019-03-13T12:25:55.599Z,6.50
2019-03-13T12:28:40.393Z,6.60
2019-03-13T12:31:31.596Z,6.50
2019-03-13T12:34:11.788Z,6.50
2019-03-13T12:36:51.371Z,6.50
2019-03-13T12:39:38.247Z,6.50
2019-03-13T12:42:24.122Z,6.50
2019-03-13T12:45:12.432Z,6.40
2019-03-13T12:47:53.274Z,6.40
2019-03-13T12:50:34.624Z,6.50
2019-03-13T12:53:25.790Z,6.50
2019-03-13T12:56:16.928Z,6.50
2019-03-13T12:59:20.366Z,6.40
2019-03-13T13:02:11.667Z,6.50
2019-03-13T13:05:12.295Z,6.50
2019-03-13T13:07:59.568Z,6.50
2019-03-13T13:11:06.311Z,6.60
2019-03-13T13:14:02.850Z,6.60
2019-03-13T13:16:50.028Z,6.60
2019-03-13T13:19:19.349Z,6.50
2019-03-13T13:21:48.810Z,6.50
2019-03-13T13:24:18.445Z,6.50
2019-03-13T13:26:50.242Z,6.40
2019-03-13T13:29:19.172Z,6.40
2019-03-13T13:31:49.060Z,6.50
2019-03-13T13:34:18.455Z,6.60
2019-03-13T13:36:47.980Z,6.60
2019-03-13T13:39:17.457Z,6.70
2019-03-13T13:41:47.272Z,6.60
2019-03-13T13:44:17.043Z,6.60
2019-03-13T13:47:05.532Z,6.50
2019-03-13T13:49:35.043Z,6.50
2019-03-13T13:52:04.516Z,6.30
2019-03-13T13:54:33.923Z,6.20
2019-03-13T13:57:03.372Z,6.10
2019-03-13T13:59:33.202Z,6.00
2019-03-13T14:02:02.616Z,6.00
2019-03-13T14:04:32.060Z,5.80
2019-03-13T14:07:01.437Z,5.70
2019-03-13T14:09:30.895Z,5.70
2019-03-13T14:12:00.526Z,5.70
2019-03-13T14:14:29.932Z,5.70
2019-03-13T14:16:59.402Z,6.00
2019-03-13T14:19:28.826Z,6.50
2019-03-13T14:21:58.325Z,6.80
2019-03-13T14:24:27.842Z,7.00
2019-03-13T14:26:57.253Z,6.90
2019-03-13T14:29:26.673Z,6.80
2019-03-13T14:31:56.047Z,6.70
2019-03-13T14:34:25.418Z,6.70
2019-03-13T14:36:54.850Z,6.80
2019-03-13T14:39:24.388Z,6.70
2019-03-13T14:41:53.781Z,6.70
2019-03-13T14:44:23.212Z,6.70
2019-03-13T14:46:53.024Z,6.70
2019-03-13T14:49:22.378Z,6.80
2019-03-13T14:51:51.860Z,6.70
2019-03-13T14:54:21.606Z,6.70
2019-03-13T14:56:51.160Z,6.60
2019-03-13T14:59:20.503Z,6.70
2019-03-13T15:01:50.038Z,6.70
2019-03-13T15:04:19.398Z,6.50
2019-03-13T15:06:48.842Z,6.50
2019-03-13T15:09:18.250Z,6.60
2019-03-13T15:11:48.143Z,6.50
2019-03-13T15:14:17.567Z,6.50
2019-03-13T15:16:47.013Z,6.50
2019-03-13T15:19:16.423Z,6.40
2019-03-13T15:21:46.128Z,6.40
2019-03-13T15:24:15.519Z,6.40
2019-03-13T15:26:44.952Z,6.40
2019-03-13T15:29:14.353Z,6.40
2019-03-13T15:31:43.749Z,6.50
2019-03-13T15:34:13.131Z,6.50
2019-03-13T15:36:42.567Z,6.60
2019-03-13T15:39:12.021Z,6.60
2019-03-13T15:41:41.356Z,6.70
2019-03-13T15:44:11.034Z,6.80
2019-03-13T15:46:40.427Z,6.80
2019-03-13T15:49:09.951Z,6.80
2019-03-13T15:51:39.372Z,6.90
2019-03-13T15:54:08.998Z,6.80
2019-03-13T15:56:38.721Z,6.80
2019-03-13T15:59:08.177Z,6.80
2019-03-13T16:01:37.617Z,6.70
2019-03-13T16:04:07.073Z,6.70
2019-03-13T16:06:36.447Z,6.70
2019-03-13T16:09:09.859Z,6.70
2019-03-13T16:11:39.276Z,6.70
2019-03-13T16:14:08.641Z,6.70
2019-03-13T16:16:38.233Z,6.70
2019-03-13T16:19:07.769Z,6.60
2019-03-13T16:21:37.343Z,6.70
2019-03-13T16:24:07.160Z,6.70
2019-03-13T16:26:36.590Z,6.70
2019-03-13T16:29:06.022Z,6.70
2019-03-13T16:31:35.394Z,6.70
2019-03-13T16:34:04.824Z,6.70
2019-03-13T16:36:34.354Z,6.70
2019-03-13T16:39:04.895Z,6.70
2019-03-13T16:41:34.487Z,6.70
2019-03-13T16:44:04.171Z,6.50
2019-03-13T16:46:33.615Z,6.40
2019-03-13T16:49:03.251Z,6.30
2019-03-13T16:51:32.955Z,6.20
2019-03-13T16:54:03.189Z,6.10
2019-03-13T16:56:32.643Z,6.10
2019-03-13T16:59:02.215Z,6.10
2019-03-13T17:01:31.903Z,6.00
2019-03-13T17:04:01.348Z,6.00
2019-03-13T17:06:31.038Z,5.90
2019-03-13T17:09:00.551Z,5.80
2019-03-13T17:11:30.277Z,5.80
2019-03-13T17:13:59.668Z,5.80
2019-03-13T17:16:29.061Z,5.80
2019-03-13T17:18:58.489Z,5.80
2019-03-13T17:21:27.913Z,5.80
2019-03-13T17:23:57.415Z,5.80
2019-03-13T17:26:27.217Z,5.80
2019-03-13T17:28:56.670Z,5.80
2019-03-13T17:31:26.136Z,5.80
2019-03-13T17:33:55.606Z,5.80
2019-03-13T17:36:24.953Z,5.80
2019-03-13T17:38:54.341Z,5.80
2019-03-13T17:41:23.695Z,5.90
2019-03-13T17:43:53.110Z,5.90
2019-03-13T17:46:22.550Z,5.90
2019-03-13T17:48:52.573Z,5.90
2019-03-13T17:51:22.211Z,5.90
2019-03-13T17:53:51.734Z,5.90
2019-03-13T17:56:21.285Z,5.90
2019-03-13T17:58:50.714Z,6.00
2019-03-13T18:01:20.151Z,6.00
2019-03-13T18:03:50.133Z,6.00
2019-03-13T18:06:20.055Z,6.00
2019-03-13T18:08:49.505Z,6.10
2019-03-13T18:11:19.127Z,6.20
2019-03-13T18:13:48.809Z,6.20
2019-03-13T18:16:18.549Z,6.20
2019-03-13T18:18:47.999Z,6.30
2019-03-13T18:21:17.367Z,6.30
2019-03-13T18:23:46.787Z,6.30
2019-03-13T18:26:16.118Z,6.30
2019-03-13T18:28:45.553Z,6.30
2019-03-13T18:31:14.968Z,6.30
2019-03-13T18:33:44.677Z,6.30
2019-03-13T18:36:14.448Z,6.30
2019-03-13T18:38:44.073Z,6.30
2019-03-13T18:41:13.488Z,6.30
2019-03-13T18:43:42.941Z,6.30
2019-03-13T18:46:12.323Z,6.30
2019-03-13T18:48:41.766Z,6.30
2019-03-13T18:51:13.518Z,6.30
2019-03-13T18:53:42.331Z,6.30
2019-03-13T18:56:11.798Z,6.30
2019-03-13T18:58:41.691Z,6.30
2019-03-13T19:01:11.164Z,6.30
2019-03-13T19:03:41.081Z,6.40
2019-03-13T19:06:10.815Z,6.40
2019-03-13T19:08:40.196Z,6.40
2019-03-13T19:11:10.385Z,6.40
2019-03-13T19:13:40.195Z,6.40
2019-03-13T19:16:09.629Z,6.40
2019-03-13T19:18:39.318Z,6.40
2019-03-13T19:21:09.094Z,6.40
2019-03-13T19:23:38.872Z,6.40
2019-03-13T19:26:08.291Z,6.40
2019-03-13T19:28:41.947Z,6.50
2019-03-13T19:31:11.530Z,6.50
2019-03-13T19:33:41.004Z,6.50
2019-03-13T19:36:10.655Z,6.50
2019-03-13T19:38:41.247Z,6.50
2019-03-13T19:41:11.165Z,6.50
2019-03-13T19:43:40.689Z,6.50
2019-03-13T19:46:10.315Z,6.50
2019-03-13T19:48:40.020Z,6.40
2019-03-13T19:51:09.855Z,6.50
2019-03-13T19:53:41.886Z,6.40
2019-03-13T19:56:10.692Z,6.50
2019-03-13T19:58:40.095Z,6.40
2019-03-13T20:01:09.786Z,6.40
2019-03-13T20:03:39.240Z,6.20
2019-03-13T20:06:09.655Z,6.10
2019-03-13T20:08:39.098Z,6.10
2019-03-13T20:11:08.610Z,6.10
2019-03-13T20:13:38.017Z,6.10
2019-03-13T20:16:07.526Z,6.10
2019-03-13T20:18:37.291Z,6.20
2019-03-13T20:21:06.736Z,6.20
2019-03-13T20:23:36.109Z,6.20
2019-03-13T20:26:05.893Z,6.20
2019-03-13T20:28:35.291Z,6.20
2019-03-13T20:31:04.861Z,6.20
2019-03-13T20:33:34.350Z,6.20
2019-03-13T20:36:03.873Z,6.10
2019-03-13T20:38:33.317Z,6.10
2019-03-13T20:41:03.026Z,6.10
2019-03-13T20:43:32.615Z,6.10
2019-03-13T20:46:01.982Z,6.10
2019-03-13T20:48:31.684Z,6.10
2019-03-13T20:51:01.056Z,6.10
2019-03-13T20:53:30.516Z,6.20
2019-03-13T20:55:59.945Z,6.20
2019-03-13T20:58:29.323Z,6.20
2019-03-13T21:00:58.828Z,6.30
2019-03-13T21:03:28.225Z,6.30
2019-03-13T21:06:00.495Z,6.30
2019-03-13T21:08:28.720Z,6.30
2019-03-13T21:10:58.817Z,6.30
2019-03-13T21:13:28.545Z,6.30
2019-03-13T21:15:58.030Z,6.20
2019-03-13T21:18:27.517Z,6.30
2019-03-13T21:20:56.889Z,6.30
2019-03-13T21:23:26.322Z,6.30
2019-03-13T21:25:55.784Z,6.20
2019-03-13T21:28:25.193Z,6.20
2019-03-13T21:30:54.663Z,6.20
2019-03-13T21:33:24.533Z,6.20
2019-03-13T21:35:53.990Z,6.20
2019-03-13T21:38:23.381Z,6.10
2019-03-13T21:40:53.333Z,6.00
2019-03-13T21:43:22.754Z,6.00
2019-03-13T21:45:52.442Z,5.90
2019-03-13T21:48:21.797Z,5.90
2019-03-13T21:50:51.185Z,5.80
2019-03-13T21:53:20.711Z,5.80
2019-03-13T21:55:50.135Z,5.80
2019-03-13T21:58:19.699Z,5.80
2019-03-13T22:00:49.077Z,5.80
2019-03-13T22:03:28.033Z,5.90
2019-03-13T22:05:49.637Z,5.90
2019-03-13T22:08:18.992Z,5.90
2019-03-13T22:10:48.317Z,5.90
2019-03-13T22:13:17.727Z,5.90
2019-03-13T22:15:47.147Z,6.00
2019-03-13T22:18:16.528Z,6.00
2019-03-13T22:20:45.977Z,6.00
2019-03-13T22:23:15.422Z,6.00
2019-03-13T22:25:44.858Z,6.00
2019-03-13T22:28:14.308Z,6.00
2019-03-13T22:30:43.629Z,6.00
2019-03-13T22:33:13.010Z,6.00
2019-03-13T22:35:42.408Z,6.00
2019-03-13T22:38:11.922Z,6.00
2019-03-13T22:40:41.382Z,6.00
2019-03-13T22:43:10.857Z,6.00
2019-03-13T22:45:40.647Z,6.00
2019-03-13T22:48:10.126Z,6.00
2019-03-13T22:50:39.533Z,6.00
2019-03-13T22:53:09.364Z,6.00
2019-03-13T22:55:40.902Z,6.00
2019-03-13T22:58:09.857Z,6.00
2019-03-13T23:01:21.306Z,6.00
2019-03-13T23:03:51.542Z,6.00
2019-03-13T23:06:21.002Z,6.00
2019-03-13T23:08:50.600Z,6.00
2019-03-13T23:11:21.594Z,6.00
2019-03-13T23:13:51.060Z,6.00
2019-03-13T23:16:23.547Z,5.90
2019-03-13T23:18:51.692Z,5.90
2019-03-13T23:21:21.147Z,5.90
2019-03-13T23:23:50.969Z,5.90
2019-03-13T23:26:20.331Z,5.90
2019-03-13T23:28:50.139Z,5.90
2019-03-13T23:31:19.618Z,5.90
2019-03-13T23:33:49.031Z,5.90
2019-03-13T23:36:18.440Z,5.90
2019-03-13T23:38:48.944Z,5.90
2019-03-13T23:41:18.327Z,5.90
2019-03-13T23:43:47.805Z,6.00
2019-03-13T23:46:17.218Z,6.00
2019-03-13T23:48:46.650Z,5.90
2019-03-13T23:51:16.064Z,6.00
2019-03-13T23:53:45.587Z,6.00
2019-03-13T23:56:14.967Z,6.00
2019-03-13T23:58:44.746Z,6.00
